Time;durP1;ratioP1;P1;durP2;ratioP2;P2;SDS_P1;SDS_P2;PMS_P1;PMS_P2;Temp;Humidity;BMP_temperature;BMP_pressure;BME280_temperature;BME280_humidity;BME280_pressure;Samples;Min_cycle;Max_cycle;Signal;HPM_P1;HPM_P2
2022/03/16 00:00:35;;;;;;;113.90;48.08;;;;;;;2.55;99.17;102590.22;2047129;28;44141;-63
2022/03/16 00:01:36;;;;;;;94.30;41.03;;;;;;;2.54;99.41;102590.16;2047277;28;42789;-64
2022/03/16 00:02:38;;;;;;;108.22;45.78;;;;;;;2.53;99.53;102598.94;2046915;28;43809;-63
2022/03/16 00:03:40;;;;;;;76.47;33.85;;;;;;;2.51;99.18;102590.94;2046784;28;45287;-63
2022/03/16 00:04:44;;;;;;;71.45;32.90;;;;;;;2.50;99.04;102586.50;2047618;28;20091;-64
2022/03/16 00:05:48;;;;;;;91.32;39.15;;;;;;;2.51;99.24;102590.94;2047320;28;45567;-63
2022/03/16 00:06:52;;;;;;;151.57;58.40;;;;;;;2.50;99.65;102591.78;2047145;28;45430;-63
2022/03/16 00:07:54;;;;;;;109.10;45.72;;;;;;;2.49;99.25;102587.34;2046648;28;45903;-63
2022/03/16 00:08:56;;;;;;;85.95;37.95;;;;;;;2.50;99.72;102591.78;2047052;28;45390;-63
2022/03/16 00:09:58;;;;;;;77.35;35.03;;;;;;;2.50;99.07;102583.88;2046753;28;46638;-62
2022/03/16 00:10:59;;;;;;;69.07;32.03;;;;;;;2.52;99.25;102583.94;2046755;28;43199;-63
2022/03/16 00:12:01;;;;;;;64.60;28.92;;;;;;;2.52;99.14;102582.19;2055129;28;20142;-62
2022/03/16 00:13:03;;;;;;;70.25;29.95;;;;;;;2.53;99.56;102586.63;2054054;28;44378;-63
2022/03/16 00:14:05;;;;;;;118.97;47.80;;;;;;;2.56;99.69;102585.84;2047249;28;30892;-63
2022/03/16 00:15:07;;;;;;;68.63;31.30;;;;;;;2.55;99.52;102584.94;2046192;28;43861;-63
2022/03/16 00:16:08;;;;;;;69.00;29.17;;;;;;;2.64;99.57;102582.63;2046713;28;42417;-63
2022/03/16 00:17:11;;;;;;;75.82;31.65;;;;;;;2.76;100.00;102579.50;2046416;28;44127;-63
2022/03/16 00:18:15;;;;;;;78.93;33.40;;;;;;;2.84;100.00;102577.16;2046805;28;44719;-62
2022/03/16 00:19:17;;;;;;;73.97;32.22;;;;;;;2.83;100.00;102578.88;2053907;28;44539;-63
2022/03/16 00:20:19;;;;;;;75.25;30.80;;;;;;;2.89;100.00;102577.28;2053754;28;46815;-63
2022/03/16 00:21:20;;;;;;;92.22;36.42;;;;;;;3.01;100.00;102578.63;2046595;28;43701;-63
2022/03/16 00:22:22;;;;;;;102.40;38.33;;;;;;;3.19;100.00;102580.09;2046969;28;32504;-63
2022/03/16 00:23:24;;;;;;;89.38;35.35;;;;;;;3.13;100.00;102580.81;2046922;28;40122;-63
2022/03/16 00:24:29;;;;;;;71.82;30.30;;;;;;;3.16;100.00;102587.94;2046458;28;45313;-62
2022/03/16 00:25:31;;;;;;;97.35;36.08;;;;;;;3.29;100.00;102582.22;2046550;28;45480;-63
2022/03/16 00:26:35;;;;;;;96.38;35.97;;;;;;;3.32;100.00;102582.34;2046599;28;44853;-63
2022/03/16 00:27:37;;;;;;;79.05;33.53;;;;;;;3.31;100.00;102582.28;2047340;28;45320;-63
2022/03/16 00:28:38;;;;;;;74.15;30.58;;;;;;;3.26;100.00;102587.41;2047340;28;35604;-63
2022/03/16 00:29:40;;;;;;;74.68;32.60;;;;;;;3.21;100.00;102587.25;2046682;28;42192;-63
2022/03/16 00:30:41;;;;;;;61.20;30.42;;;;;;;3.14;100.00;102584.34;2046873;28;44090;-63
2022/03/16 00:31:43;;;;;;;67.00;30.13;;;;;;;3.09;100.00;102591.22;2046712;28;46119;-64
2022/03/16 00:32:45;;;;;;;67.45;30.90;;;;;;;3.06;100.00;102595.56;2046583;28;45505;-63
2022/03/16 00:33:50;;;;;;;78.25;34.90;;;;;;;3.13;100.00;102591.38;2046474;28;46660;-64
2022/03/16 00:34:51;;;;;;;82.75;34.33;;;;;;;3.12;100.00;102591.31;2046075;28;43745;-63
2022/03/16 00:35:56;;;;;;;89.32;35.88;;;;;;;3.21;100.00;102587.25;2047342;28;20836;-63
2022/03/16 00:36:58;;;;;;;84.53;34.25;;;;;;;3.22;100.00;102590.81;2046145;28;45202;-63
2022/03/16 00:38:00;;;;;;;78.97;32.83;;;;;;;3.25;100.00;102590.91;2047134;28;20906;-64
2022/03/16 00:39:04;;;;;;;88.85;35.65;;;;;;;3.27;100.00;102586.56;2046556;28;44881;-64
2022/03/16 00:40:11;;;;;;;92.88;34.00;;;;;;;3.33;100.00;102584.13;2047538;28;28637;-63
2022/03/16 00:41:13;;;;;;;74.85;31.35;;;;;;;3.35;100.00;102590.34;2046684;28;20162;-64
2022/03/16 00:42:14;;;;;;;66.90;30.90;;;;;;;3.33;100.00;102583.22;2037877;28;46119;-64
2022/03/16 00:43:16;;;;;;;87.70;34.65;;;;;;;3.39;100.00;102583.41;2046211;28;45497;-63
2022/03/16 00:44:17;;;;;;;87.55;36.30;;;;;;;3.43;100.00;102580.94;2046397;28;44784;-63
2022/03/16 00:45:19;;;;;;;71.13;30.15;;;;;;;3.42;100.00;102584.41;2045588;28;41130;-63
2022/03/16 00:46:21;;;;;;;74.03;32.55;;;;;;;3.42;100.00;102584.41;2045791;28;43993;-63
2022/03/16 00:47:23;;;;;;;77.38;33.10;;;;;;;3.42;100.00;102587.06;2046132;28;43632;-64
2022/03/16 00:48:24;;;;;;;74.78;31.48;;;;;;;3.46;100.00;102585.41;2046140;28;45172;-63
2022/03/16 00:49:26;;;;;;;76.07;33.00;;;;;;;3.42;100.00;102584.41;2046190;28;46179;-63
2022/03/16 00:50:30;;;;;;;64.70;31.08;;;;;;;3.33;100.00;102584.13;2047826;28;20051;-63
2022/03/16 00:51:32;;;;;;;72.55;33.45;;;;;;;3.34;100.00;102585.94;2046541;28;44318;-63
2022/03/16 00:52:37;;;;;;;76.00;34.00;;;;;;;3.29;100.00;102582.22;2046423;28;46407;-63
2022/03/16 00:53:40;;;;;;;81.32;34.30;;;;;;;3.28;100.00;102575.13;2046258;28;36730;-63
2022/03/16 00:54:42;;;;;;;69.55;31.98;;;;;;;3.21;100.00;102581.97;2046170;28;44273;-63
2022/03/16 00:55:44;;;;;;;73.43;32.38;;;;;;;3.20;100.00;102576.63;2046962;28;39728;-63
2022/03/16 00:56:45;;;;;;;74.70;33.30;;;;;;;3.15;100.00;102583.50;2047681;28;20122;-63
2022/03/16 00:57:51;;;;;;;69.68;33.47;;;;;;;3.10;100.00;102580.69;2054134;28;46485;-63
2022/03/16 00:58:53;;;;;;;67.10;31.58;;;;;;;3.11;100.00;102577.22;2053456;28;43939;-63
2022/03/16 00:59:55;;;;;;;60.65;27.75;;;;;;;3.08;100.00;102585.03;2046659;28;40898;-63
2022/03/16 01:00:58;;;;;;;79.10;33.97;;;;;;;3.05;99.97;102576.97;2047632;28;20035;-63
2022/03/16 01:02:00;;;;;;;78.93;36.92;;;;;;;3.02;100.00;102583.06;2046975;28;33969;-64
2022/03/16 01:03:03;;;;;;;82.13;39.47;;;;;;;3.00;100.00;102576.84;2047428;28;20964;-63
2022/03/16 01:04:05;;;;;;;76.90;35.42;;;;;;;2.99;100.00;102585.59;2046788;28;41243;-64
2022/03/16 01:05:08;;;;;;;77.10;34.78;;;;;;;2.96;99.64;102577.59;2046013;28;20047;-63
2022/03/16 01:06:15;;;;;;;81.90;37.22;;;;;;;2.92;99.82;102583.59;2045777;28;45894;-63
2022/03/16 01:07:16;;;;;;;79.20;35.03;;;;;;;2.88;99.82;102584.34;2046612;28;44617;-64
2022/03/16 01:08:18;;;;;;;89.13;37.53;;;;;;;2.96;100.00;102581.94;2048441;28;20917;-63
2022/03/16 01:09:20;;;;;;;78.05;34.05;;;;;;;2.97;100.00;102583.75;2048054;28;42137;-64
2022/03/16 01:10:22;;;;;;;92.95;35.75;;;;;;;3.02;100.00;102588.38;2047794;28;26651;-63
2022/03/16 01:11:24;;;;;;;84.43;34.22;;;;;;;3.06;100.00;102584.97;2047117;28;44362;-64
2022/03/16 01:12:36;;;;;;;95.18;37.63;;;;;;;3.13;100.00;102590.50;2050073;28;44190;-64
2022/03/16 01:13:41;;;;;;;98.75;38.22;;;;;;;3.18;100.00;102589.81;2048367;28;20174;-69
2022/03/16 01:14:43;;;;;;;79.55;33.83;;;;;;;3.16;100.00;102590.56;2040071;28;45979;-68
2022/03/16 01:15:45;;;;;;;86.07;34.80;;;;;;;3.14;100.00;102592.28;2039782;29;32278;-69
2022/03/16 01:16:46;;;;;;;82.18;33.08;;;;;;;3.10;100.00;102593.91;2039875;29;45328;-69
2022/03/16 01:17:50;;;;;;;86.15;35.00;;;;;;;3.04;100.00;102604.31;2040011;28;43753;-69
2022/03/16 01:18:52;;;;;;;62.65;28.17;;;;;;;2.98;100.00;102602.34;2040553;28;35026;-69
2022/03/16 01:19:59;;;;;;;72.80;31.08;;;;;;;2.91;100.00;102594.13;2047434;28;20122;-69
2022/03/16 01:21:03;;;;;;;54.85;26.38;;;;;;;2.84;100.00;102593.03;2046856;28;44977;-68
2022/03/16 01:22:06;;;;;;;74.95;29.38;;;;;;;2.81;100.00;102593.78;2046812;28;43572;-68
2022/03/16 01:23:07;;;;;;;79.43;33.92;;;;;;;2.85;100.00;102594.81;2031087;29;45928;-69
2022/03/16 01:24:09;;;;;;;82.03;33.13;;;;;;;2.89;100.00;102598.47;2023365;29;36290;-69
2022/03/16 01:25:11;;;;;;;84.70;35.78;;;;;;;2.91;100.00;102589.75;2039422;29;43329;-68
2022/03/16 01:26:16;;;;;;;76.80;32.25;;;;;;;2.85;100.00;102590.44;2040345;29;20032;-69
2022/03/16 01:27:18;;;;;;;76.95;33.97;;;;;;;2.82;100.00;102597.38;2032663;28;20833;-69
2022/03/16 01:28:21;;;;;;;73.20;31.20;;;;;;;2.74;100.00;102586.50;2039212;28;42080;-69
2022/03/16 01:29:26;;;;;;;64.93;26.90;;;;;;;2.67;100.00;102593.31;2046789;28;45304;-69
2022/03/16 01:30:27;;;;;;;78.78;33.03;;;;;;;2.66;100.00;102588.88;2031079;29;46095;-68
2022/03/16 01:31:29;;;;;;;58.90;28.92;;;;;;;2.64;100.00;102589.66;2031816;28;45324;-69
2022/03/16 01:32:31;;;;;;;54.67;26.42;;;;;;;2.58;100.00;102595.59;2047240;28;45231;-68
2022/03/16 01:33:33;;;;;;;53.53;26.95;;;;;;;2.55;100.00;102597.25;2040243;28;20036;-68
2022/03/16 01:34:35;;;;;;;62.75;29.52;;;;;;;2.51;100.00;102588.28;2039503;28;44456;-68
2022/03/16 01:35:37;;;;;;;59.67;27.33;;;;;;;2.50;100.00;102596.19;2047418;28;38362;-68
2022/03/16 01:36:38;;;;;;;63.95;28.13;;;;;;;2.46;99.88;102595.19;2039935;29;42217;-68
2022/03/16 01:37:43;;;;;;;66.63;29.55;;;;;;;2.56;100.00;102593.75;2040200;29;44290;-68
2022/03/16 01:38:45;;;;;;;78.15;31.23;;;;;;;2.59;100.00;102593.88;2039728;28;37237;-67
2022/03/16 01:39:47;;;;;;;89.03;35.00;;;;;;;2.64;100.00;102593.19;2038890;29;44491;-68
2022/03/16 01:40:48;;;;;;;83.03;34.85;;;;;;;2.63;100.00;102585.22;2039511;29;36730;-68
2022/03/16 01:41:50;;;;;;;85.65;35.00;;;;;;;2.65;100.00;102592.34;2031256;29;42233;-68
2022/03/16 01:42:52;;;;;;;85.47;34.50;;;;;;;2.71;100.00;102582.84;2032506;29;20162;-68
2022/03/16 01:43:56;;;;;;;104.72;37.55;;;;;;;2.72;100.00;102588.19;2042195;29;23438;-67
2022/03/16 01:44:58;;;;;;;79.30;31.98;;;;;;;2.70;100.00;102589.88;2041778;28;44201;-67
2022/03/16 01:45:59;;;;;;;99.20;37.30;;;;;;;2.81;100.00;102580.56;2047688;28;31539;-67
2022/03/16 01:47:01;;;;;;;101.88;37.90;;;;;;;2.89;100.00;102587.88;2039619;28;35762;-67
2022/03/16 01:48:03;;;;;;;96.75;36.97;;;;;;;2.95;100.00;102583.72;2039514;28;44511;-68
2022/03/16 01:49:05;;;;;;;95.28;36.88;;;;;;;2.95;100.00;102583.72;2047265;28;45939;-67
2022/03/16 01:50:08;;;;;;;71.10;30.40;;;;;;;2.95;100.00;102583.72;2047770;28;42142;-67
2022/03/16 01:51:10;;;;;;;75.47;32.13;;;;;;;2.92;100.00;102588.00;2048121;28;20874;-65
2022/03/16 01:52:17;;;;;;;79.30;33.50;;;;;;;2.90;100.00;102587.94;2047633;28;20146;-67
2022/03/16 01:53:20;;;;;;;63.13;28.67;;;;;;;2.82;100.00;102590.31;2047173;28;42253;-67
2022/03/16 01:54:22;;;;;;;81.05;34.10;;;;;;;2.84;100.00;102593.03;2048519;28;21560;-66
2022/03/16 01:55:24;;;;;;;61.47;28.50;;;;;;;2.77;100.00;102591.91;2056022;28;20035;-67
2022/03/16 01:56:26;;;;;;;81.35;33.88;;;;;;;2.73;100.00;102591.72;2047363;28;29705;-67
2022/03/16 01:57:28;;;;;;;71.70;31.50;;;;;;;2.67;100.00;102587.13;2048006;28;20086;-67
2022/03/16 01:58:29;;;;;;;78.13;32.75;;;;;;;2.62;100.00;102594.91;2047577;28;20813;-66
2022/03/16 01:59:35;;;;;;;73.03;32.33;;;;;;;2.57;100.00;102588.53;2055312;28;20055;-66
2022/03/16 02:00:37;;;;;;;71.72;30.70;;;;;;;2.51;100.00;102596.22;2047622;28;20249;-67
2022/03/16 02:01:41;;;;;;;70.88;29.50;;;;;;;2.46;100.00;102606.66;2039792;28;40198;-67
2022/03/16 02:02:44;;;;;;;69.22;29.60;;;;;;;2.39;100.00;102603.72;2055570;28;21056;-67
2022/03/16 02:03:47;;;;;;;63.83;26.75;;;;;;;2.33;100.00;102600.84;2047653;28;20075;-68
2022/03/16 02:04:49;;;;;;;60.25;27.23;;;;;;;2.28;100.00;102603.31;2038006;28;45222;-67
2022/03/16 02:05:51;;;;;;;65.75;27.88;;;;;;;2.21;100.00;102596.91;2039078;28;42538;-67
2022/03/16 02:06:53;;;;;;;61.33;27.80;;;;;;;2.18;99.80;102601.16;2039177;28;37791;-67
2022/03/16 02:07:56;;;;;;;70.13;30.38;;;;;;;2.14;99.97;102597.50;2046547;28;43055;-67
2022/03/16 02:08:59;;;;;;;75.53;30.80;;;;;;;2.12;100.00;102596.53;2047209;28;45154;-66
2022/03/16 02:10:04;;;;;;;69.65;30.08;;;;;;;2.10;100.00;102592.94;2047737;28;25790;-67
2022/03/16 02:11:06;;;;;;;57.05;27.13;;;;;;;2.08;99.94;102597.25;2039717;28;42356;-67
2022/03/16 02:12:12;;;;;;;59.70;27.98;;;;;;;2.08;100.00;102592.88;2038718;29;45362;-67
2022/03/16 02:13:14;;;;;;;67.97;29.48;;;;;;;2.09;100.00;102586.75;2039548;28;44587;-68
2022/03/16 02:14:19;;;;;;;73.80;33.20;;;;;;;2.13;100.00;102593.03;2039752;28;45520;-67
2022/03/16 02:15:23;;;;;;;69.60;29.27;;;;;;;2.08;100.00;102590.25;2047585;28;20051;-67
2022/03/16 02:16:25;;;;;;;83.85;33.90;;;;;;;2.09;100.00;102588.50;2047136;28;43376;-67
2022/03/16 02:17:27;;;;;;;89.22;34.05;;;;;;;2.28;100.00;102585.72;2047263;28;43661;-65
2022/03/16 02:18:29;;;;;;;77.38;31.05;;;;;;;2.15;100.00;102586.06;2048440;28;20087;-67
2022/03/16 02:19:32;;;;;;;64.57;26.92;;;;;;;2.08;100.00;102584.97;2048164;28;27439;-67
2022/03/16 02:20:34;;;;;;;79.60;32.00;;;;;;;2.07;100.00;102584.91;2047052;28;45075;-67
2022/03/16 02:21:38;;;;;;;82.95;34.10;;;;;;;2.06;100.00;102583.09;2046737;28;46280;-67
2022/03/16 02:22:54;;;;;;;78.43;31.73;;;;;;;1.99;100.00;102581.97;2038157;29;45463;-67
2022/03/16 02:23:56;;;;;;;63.67;27.30;;;;;;;1.95;100.00;102587.06;2041232;28;44835;-66
2022/03/16 02:24:58;;;;;;;70.28;28.67;;;;;;;1.97;100.00;102582.72;2047470;28;41786;-66
2022/03/16 02:25:59;;;;;;;79.45;32.05;;;;;;;1.90;100.00;102579.88;2047282;28;42941;-66
2022/03/16 02:27:04;;;;;;;67.22;28.15;;;;;;;1.87;100.00;102579.72;2046442;28;43581;-65
2022/03/16 02:28:05;;;;;;;66.82;28.98;;;;;;;1.83;100.00;102580.47;2039335;28;45516;-66
2022/03/16 02:29:07;;;;;;;60.42;25.73;;;;;;;1.79;100.00;102581.16;2047141;28;38144;-66
2022/03/16 02:30:10;;;;;;;68.03;27.95;;;;;;;1.77;100.00;102588.13;2046856;28;42073;-66
2022/03/16 02:31:13;;;;;;;65.63;28.80;;;;;;;1.74;100.00;102582.72;2047058;28;44045;-65
2022/03/16 02:32:15;;;;;;;65.65;27.83;;;;;;;1.78;100.00;102584.66;2048131;28;44875;-65
2022/03/16 02:33:16;;;;;;;68.90;28.50;;;;;;;1.80;100.00;102580.34;2046418;28;45190;-66
2022/03/16 02:34:18;;;;;;;85.15;33.85;;;;;;;1.80;100.00;102577.69;2046828;28;46571;-65
2022/03/16 02:35:22;;;;;;;61.67;26.17;;;;;;;1.80;100.00;102575.06;2048494;28;20174;-65
2022/03/16 02:36:24;;;;;;;77.53;32.67;;;;;;;1.83;100.00;102569.91;2046625;28;43237;-66
2022/03/16 02:37:26;;;;;;;80.80;30.33;;;;;;;1.79;100.00;102572.34;2047056;28;45752;-65
2022/03/16 02:38:27;;;;;;;89.88;33.63;;;;;;;1.80;100.00;102574.16;2047484;28;45454;-65
2022/03/16 02:39:29;;;;;;;107.35;37.95;;;;;;;2.13;100.00;102573.66;2047283;28;46422;-66
2022/03/16 02:40:33;;;;;;;104.35;38.30;;;;;;;2.14;100.00;102568.44;2046750;28;43448;-68
2022/03/16 02:41:35;;;;;;;101.07;38.50;;;;;;;2.11;100.00;102565.66;2039454;28;38830;-65
2022/03/16 02:42:37;;;;;;;104.18;36.75;;;;;;;2.15;100.00;102567.56;2046916;28;46449;-66
2022/03/16 02:43:39;;;;;;;122.03;40.83;;;;;;;2.27;100.00;102570.69;2047970;28;20806;-65
2022/03/16 02:44:41;;;;;;;122.13;42.53;;;;;;;2.27;100.00;102575.97;2047381;28;45330;-66
2022/03/16 02:45:43;;;;;;;106.60;38.97;;;;;;;2.17;100.00;102576.50;2047341;28;44599;-65
2022/03/16 02:46:44;;;;;;;114.72;39.15;;;;;;;2.21;100.00;102572.22;2047177;28;45303;-68
2022/03/16 02:47:47;;;;;;;113.07;40.33;;;;;;;2.28;100.00;102577.78;2046530;28;45434;-68
2022/03/16 02:48:48;;;;;;;117.50;40.55;;;;;;;2.29;100.00;102562.81;2038346;28;43342;-68
2022/03/16 02:49:51;;;;;;;118.18;40.70;;;;;;;2.38;100.00;102573.72;2038353;28;45375;-67
2022/03/16 02:50:53;;;;;;;127.95;40.97;;;;;;;2.48;100.00;102575.00;2046642;28;45487;-68
2022/03/16 02:51:55;;;;;;;117.53;41.33;;;;;;;2.52;100.00;102576.88;2046133;28;44925;-68
2022/03/16 02:52:57;;;;;;;129.40;43.75;;;;;;;2.65;100.00;102572.94;2038855;28;45360;-69
2022/03/16 02:54:17;;;;;;;120.55;41.53;;;;;;;2.65;100.00;102576.47;2041607;28;43914;-69
2022/03/16 02:55:18;;;;;;;108.63;38.08;;;;;;;2.62;100.00;102573.75;2046638;28;45453;-68
2022/03/16 02:56:20;;;;;;;119.80;40.20;;;;;;;2.63;100.00;102572.88;2046866;28;45439;-69
2022/03/16 02:57:22;;;;;;;117.75;40.70;;;;;;;2.67;100.00;102580.09;2046207;28;45435;-69
2022/03/16 02:58:23;;;;;;;129.45;43.50;;;;;;;2.78;100.00;102584.84;2038196;28;46557;-68
2022/03/16 02:59:25;;;;;;;123.75;42.22;;;;;;;2.73;100.00;102581.13;2046373;28;44219;-68
2022/03/16 03:00:30;;;;;;;120.07;42.78;;;;;;;2.77;100.00;102583.06;2046976;28;45444;-68
2022/03/16 03:01:34;;;;;;;128.60;45.83;;;;;;;2.87;100.00;102577.22;2047289;28;43857;-69
2022/03/16 03:02:38;;;;;;;124.13;43.47;;;;;;;2.82;100.00;102585.03;2047125;28;43013;-69
2022/03/16 03:03:40;;;;;;;123.53;45.00;;;;;;;2.85;100.00;102584.22;2046641;28;44890;-69
2022/03/16 03:04:41;;;;;;;126.32;46.35;;;;;;;2.94;100.00;102586.31;2046698;28;42534;-69
2022/03/16 03:05:43;;;;;;;118.10;42.72;;;;;;;2.89;100.00;102585.22;2045817;28;45712;-69
2022/03/16 03:06:45;;;;;;;118.20;41.72;;;;;;;2.86;100.00;102591.34;2046499;28;44702;-70
2022/03/16 03:07:47;;;;;;;120.40;44.65;;;;;;;2.83;100.00;102583.28;2046416;28;42019;-70
2022/03/16 03:08:49;;;;;;;121.75;42.88;;;;;;;2.91;100.00;102587.09;2046340;28;45589;-69
2022/03/16 03:09:53;;;;;;;101.15;39.15;;;;;;;2.89;100.00;102595.81;2048451;28;20805;-69
2022/03/16 03:10:55;;;;;;;116.95;44.42;;;;;;;2.90;100.00;102593.22;2046168;28;45196;-69
2022/03/16 03:11:59;;;;;;;98.30;39.92;;;;;;;2.81;100.00;102591.16;2046582;28;45770;-69
2022/03/16 03:13:01;;;;;;;108.68;41.47;;;;;;;2.81;100.00;102595.56;2046620;28;42389;-69
2022/03/16 03:14:03;;;;;;;103.38;42.78;;;;;;;2.79;100.00;102586.66;2046531;28;44321;-70
2022/03/16 03:15:09;;;;;;;95.18;38.70;;;;;;;2.74;100.00;102601.47;2046626;28;43282;-70
2022/03/16 03:16:11;;;;;;;96.20;37.63;;;;;;;2.71;100.00;102594.34;2046555;28;41232;-70
2022/03/16 03:17:13;;;;;;;97.38;38.60;;;;;;;2.68;100.00;102603.03;2047247;28;38812;-70
2022/03/16 03:18:14;;;;;;;101.15;42.10;;;;;;;2.69;100.00;102596.00;2046956;28;43463;-70
2022/03/16 03:19:16;;;;;;;101.18;39.45;;;;;;;2.72;100.00;102598.75;2046479;28;45631;-70
2022/03/16 03:20:19;;;;;;;98.40;39.78;;;;;;;2.70;100.00;102597.81;2039659;28;20112;-70
2022/03/16 03:21:21;;;;;;;105.00;42.03;;;;;;;2.74;100.00;102601.47;2046724;28;45978;-70
2022/03/16 03:22:27;;;;;;;107.00;41.35;;;;;;;2.71;100.00;102604.00;2047356;28;46360;-70
2022/03/16 03:23:29;;;;;;;107.57;42.13;;;;;;;2.72;100.00;102597.88;2047285;28;43387;-70
2022/03/16 03:24:32;;;;;;;98.53;41.13;;;;;;;2.72;100.00;102603.16;2054799;28;36737;-70
2022/03/16 03:25:36;;;;;;;104.20;45.15;;;;;;;2.82;100.00;102598.25;2053902;28;45622;-70
2022/03/16 03:26:38;;;;;;;102.78;40.75;;;;;;;2.77;100.00;102599.84;2047687;28;45279;-70
2022/03/16 03:27:40;;;;;;;106.95;42.13;;;;;;;2.77;100.00;102601.59;2046842;28;45443;-69
2022/03/16 03:28:42;;;;;;;93.93;40.40;;;;;;;2.72;100.00;102588.19;2048123;28;20048;-69
2022/03/16 03:29:44;;;;;;;95.15;40.40;;;;;;;2.71;100.00;102598.69;2047041;28;43979;-69
2022/03/16 03:30:45;;;;;;;91.90;37.63;;;;;;;2.65;100.00;102599.38;2046333;28;45699;-70
2022/03/16 03:31:47;;;;;;;82.78;33.80;;;;;;;2.61;100.00;102601.00;2046565;28;43724;-69
2022/03/16 03:32:49;;;;;;;92.07;36.85;;;;;;;2.61;100.00;102605.41;2047028;28;44465;-69
2022/03/16 03:33:54;;;;;;;95.97;39.55;;;;;;;2.64;100.00;102603.78;2046551;28;45470;-69
2022/03/16 03:34:56;;;;;;;89.28;37.88;;;;;;;2.61;100.00;102603.66;2046007;28;43929;-69
2022/03/16 03:35:57;;;;;;;80.40;36.67;;;;;;;2.59;100.00;102601.81;2047467;28;40113;-69
2022/03/16 03:36:59;;;;;;;79.55;35.05;;;;;;;2.56;100.00;102607.88;2047286;28;41154;-69
2022/03/16 03:38:00;;;;;;;90.53;38.90;;;;;;;2.60;100.00;102606.25;2046296;28;45113;-69
2022/03/16 03:39:03;;;;;;;74.55;33.05;;;;;;;2.58;100.00;102608.81;2047557;28;20912;-69
2022/03/16 03:40:06;;;;;;;76.10;35.95;;;;;;;2.54;100.00;102613.97;2046578;28;43892;-69
2022/03/16 03:41:07;;;;;;;81.57;36.33;;;;;;;2.48;100.00;102615.53;2046392;28;46015;-69
2022/03/16 03:42:10;;;;;;;84.15;37.58;;;;;;;2.45;100.00;102619.81;2046387;28;42661;-69
2022/03/16 03:43:11;;;;;;;73.93;34.17;;;;;;;2.42;100.00;102614.38;2046671;28;45449;-69
2022/03/16 03:44:13;;;;;;;75.13;33.53;;;;;;;2.38;100.00;102615.13;2046683;28;40598;-69
2022/03/16 03:45:15;;;;;;;94.18;39.42;;;;;;;2.36;100.00;102608.88;2047179;28;45107;-69
2022/03/16 03:46:19;;;;;;;78.85;34.70;;;;;;;2.37;100.00;102610.66;2047149;28;46587;-69
2022/03/16 03:47:20;;;;;;;88.05;37.63;;;;;;;2.40;100.00;102610.78;2046743;28;43850;-69
2022/03/16 03:48:22;;;;;;;93.43;37.33;;;;;;;2.39;100.00;102612.53;2046425;28;45215;-69
2022/03/16 03:49:24;;;;;;;104.55;41.80;;;;;;;2.45;100.00;102611.88;2046150;28;46478;-69
2022/03/16 03:50:25;;;;;;;95.38;38.88;;;;;;;2.47;100.00;102613.72;2046603;28;44187;-69
2022/03/16 03:51:27;;;;;;;94.60;39.20;;;;;;;2.47;100.00;102619.00;2047320;28;45308;-70
2022/03/16 03:52:29;;;;;;;90.75;38.78;;;;;;;2.45;100.00;102614.50;2046433;28;41992;-69
2022/03/16 03:53:30;;;;;;;82.93;36.67;;;;;;;2.45;100.00;102611.88;2045850;28;45378;-69
2022/03/16 03:54:33;;;;;;;90.22;39.47;;;;;;;2.46;100.00;102611.03;2046827;28;46698;-69
2022/03/16 03:55:34;;;;;;;93.43;36.45;;;;;;;2.43;100.00;102610.91;2046291;28;44771;-69
2022/03/16 03:56:36;;;;;;;91.47;38.75;;;;;;;2.45;100.00;102617.16;2046501;28;43939;-69
2022/03/16 03:57:38;;;;;;;79.40;36.88;;;;;;;2.38;100.00;102607.19;2046997;28;44427;-69
2022/03/16 03:58:39;;;;;;;88.25;37.50;;;;;;;2.34;100.00;102614.13;2047457;28;37189;-69
2022/03/16 03:59:41;;;;;;;88.32;37.45;;;;;;;2.29;100.00;102619.22;2046840;28;45329;-69
2022/03/16 04:00:43;;;;;;;78.07;35.08;;;;;;;2.22;100.00;102609.25;2047142;28;41433;-69
2022/03/16 04:01:45;;;;;;;82.45;37.13;;;;;;;2.22;100.00;102614.53;2046235;28;45905;-69
2022/03/16 04:02:50;;;;;;;90.68;39.03;;;;;;;2.17;100.00;102610.84;2047033;28;46109;-69
2022/03/16 04:03:55;;;;;;;89.00;36.65;;;;;;;2.13;100.00;102606.25;2046763;28;45450;-69
2022/03/16 04:04:56;;;;;;;72.57;33.70;;;;;;;2.06;100.00;102605.13;2046024;28;25975;-69
2022/03/16 04:06:02;;;;;;;82.38;36.00;;;;;;;2.04;100.00;102608.53;2046094;28;44958;-69
2022/03/16 04:07:03;;;;;;;82.82;35.30;;;;;;;2.00;100.00;102610.16;2046022;28;43140;-69
2022/03/16 04:08:05;;;;;;;78.00;34.72;;;;;;;1.96;100.00;102612.66;2045911;28;45440;-69
2022/03/16 04:09:08;;;;;;;68.25;33.47;;;;;;;1.90;100.00;102613.28;2046650;28;26533;-69
2022/03/16 04:10:09;;;;;;;68.40;32.40;;;;;;;1.85;100.00;102614.88;2046259;28;46508;-69
2022/03/16 04:11:12;;;;;;;72.00;32.28;;;;;;;1.78;100.00;102613.69;2039614;28;27926;-69
2022/03/16 04:12:13;;;;;;;66.18;33.67;;;;;;;1.74;100.00;102609.13;2038468;28;42497;-69
2022/03/16 04:13:15;;;;;;;71.65;31.65;;;;;;;1.78;100.00;102611.06;2046121;28;44965;-69
2022/03/16 04:14:17;;;;;;;85.20;35.15;;;;;;;1.76;100.00;102615.38;2045885;28;36754;-68
2022/03/16 04:15:20;;;;;;;59.72;26.70;;;;;;;1.71;100.00;102616.94;2045934;28;43934;-69
2022/03/16 04:16:21;;;;;;;77.22;32.65;;;;;;;1.70;100.00;102620.41;2047666;28;21017;-68
2022/03/16 04:17:23;;;;;;;83.82;35.75;;;;;;;1.69;100.00;102619.50;2046109;28;44414;-69
2022/03/16 04:18:26;;;;;;;58.75;28.42;;;;;;;1.66;100.00;102624.66;2046141;28;45038;-69
2022/03/16 04:19:27;;;;;;;61.22;28.30;;;;;;;1.63;100.00;102615.72;2046991;28;41023;-69
2022/03/16 04:20:29;;;;;;;80.15;32.92;;;;;;;1.63;100.00;102613.97;2046542;28;45315;-69
2022/03/16 04:21:33;;;;;;;73.18;30.23;;;;;;;1.71;100.00;102627.50;2045875;28;43400;-69
2022/03/16 04:22:36;;;;;;;70.63;32.42;;;;;;;1.70;100.00;102621.28;2038185;28;44144;-69
2022/03/16 04:23:38;;;;;;;64.13;31.40;;;;;;;1.67;100.00;102622.91;2038214;28;46434;-69
2022/03/16 04:24:39;;;;;;;70.22;33.17;;;;;;;1.63;100.00;102628.91;2045906;28;42316;-69
2022/03/16 04:25:41;;;;;;;73.60;31.88;;;;;;;1.58;100.00;102627.81;2046916;28;44335;-68
2022/03/16 04:26:43;;;;;;;75.00;32.72;;;;;;;1.56;100.00;102632.13;2046964;28;44642;-68
2022/03/16 04:27:44;;;;;;;64.22;28.27;;;;;;;1.51;100.00;102635.50;2046647;28;43952;-69
2022/03/16 04:28:46;;;;;;;60.53;27.35;;;;;;;1.48;100.00;102635.34;2046936;28;45138;-69
2022/03/16 04:29:48;;;;;;;62.78;29.08;;;;;;;1.45;100.00;102636.97;2046130;28;43204;-69
2022/03/16 04:30:49;;;;;;;60.95;28.05;;;;;;;1.39;100.00;102640.25;2046142;28;45119;-69
2022/03/16 04:31:51;;;;;;;63.47;28.63;;;;;;;1.36;100.00;102640.13;2046590;28;40843;-69
2022/03/16 04:32:53;;;;;;;62.45;30.05;;;;;;;1.33;100.00;102642.66;2047301;28;43447;-69
2022/03/16 04:33:55;;;;;;;62.88;28.48;;;;;;;1.32;100.00;102641.72;2046882;28;33833;-69
2022/03/16 04:34:57;;;;;;;59.45;28.63;;;;;;;1.29;100.00;102644.25;2046721;28;44200;-69
2022/03/16 04:35:58;;;;;;;60.08;28.65;;;;;;;1.29;100.00;102651.25;2045630;28;44438;-69
2022/03/16 04:37:02;;;;;;;62.92;28.80;;;;;;;1.27;100.00;102656.44;2045898;28;45242;-69
2022/03/16 04:38:08;;;;;;;57.60;26.17;;;;;;;1.24;100.00;102650.16;2046503;28;41035;-69
2022/03/16 04:39:09;;;;;;;50.70;24.20;;;;;;;1.23;100.00;102653.63;2045873;28;45694;-69
2022/03/16 04:40:12;;;;;;;46.20;23.30;;;;;;;1.19;100.00;102663.16;2047420;28;20044;-69
2022/03/16 04:41:14;;;;;;;52.10;25.08;;;;;;;1.16;100.00;102670.03;2046620;28;44134;-69
2022/03/16 04:42:15;;;;;;;48.05;23.73;;;;;;;1.10;100.00;102666.28;2046985;28;45108;-69
2022/03/16 04:43:17;;;;;;;51.00;24.45;;;;;;;1.05;100.00;102665.19;2049314;28;20040;-69
2022/03/16 04:44:19;;;;;;;60.67;28.95;;;;;;;1.02;100.00;102662.41;2047816;28;43040;-68